Mobile — WDD9649 — position and weather

sailwx.info

Track history (hours):
 
Tides and Currents Weather Stations Pressure Air Temp Water Temp Dewpoint Dewpoint Depression Visibility Wind Speed Wind Dir Waves Ship Positions

Mobile

Owner: Kirby Inland Marine, LP, Houston, TX. More information available from US FCC via Universal Licensing System and Coast Guard Vessel Documentation Center.

Last reported at 2018-Apr-13 00:36 UTC. Time now 2018-Apr-20 12:49 UTC.
Position N 30°24' W 086°53'.

Length 206 m.

Type: . MMSI: 367314430.

Date/timePositionNaut miles runAvg speedWind from/ knotsBaromVisibWave heightAir tempDewpointWater temp
2018-Apr-13 00:36N 30°24' W 086°53'1 6.7
2018-Apr-13 00:30N 30°24' W 086°53'3 6.8
2018-Apr-13 00:00N 30°24' W 086°49'3 6.9
2018-Apr-12 23:30N 30°24' W 086°45'11 6.7
2018-Apr-12 21:50N 30°25' W 086°32'3 7.7
2018-Apr-12 21:30N 30°27' W 086°29'1 2.5
2018-Apr-12 21:00N 30°28' W 086°28'3 4.8
2018-Apr-12 20:21N 30°31' W 086°29'0 0.0
2018-Apr-12 06:59N 30°31' W 086°29'1 1.3
2018-Apr-12 06:30N 30°30' W 086°29'2 4.8
2018-Apr-12 06:00N 30°28' W 086°28'1 1.2
2018-Apr-12 05:30N 30°27' W 086°29'14 5.6
2018-Apr-12 02:58N 30°24' W 086°45'3 6.2
2018-Apr-12 02:30N 30°24' W 086°48'3 6.2
2018-Apr-12 02:00N 30°24' W 086°52'  
2018-Apr-07 23:04N 30°24' W 086°53'1 6.6
2018-Apr-07 23:00N 30°24' W 086°53'3 6.3
2018-Apr-07 22:30N 30°24' W 086°49'3 6.2
2018-Apr-07 22:00N 30°24' W 086°45'9 5.2
2018-Apr-07 20:20N 30°24' W 086°35'3 6.2
2018-Apr-07 19:47N 30°25' W 086°32'2 7.0
2018-Apr-07 19:30N 30°26' W 086°30'2 4.3
2018-Apr-07 19:00N 30°28' W 086°28'2 4.4
2018-Apr-07 18:30N 30°30' W 086°29'1 0.0
2018-Apr-06 04:20N 30°31' W 086°29'0 0.7
2018-Apr-06 04:00N 30°30' W 086°29'2 4.2
2018-Apr-06 03:30N 30°29' W 086°28'1 1.7
2018-Apr-06 03:00N 30°28' W 086°28'3 5.4
2018-Apr-06 02:30N 30°26' W 086°31'12 5.7
2018-Apr-06 00:21N 30°24' W 086°45'2 5.9
2018-Apr-06 00:00N 30°24' W 086°47'3 6.1
2018-Apr-05 23:30N 30°24' W 086°51'  
Track history (hours):
 
Tides and Currents Weather Stations Pressure Air Temp Water Temp Dewpoint Dewpoint Depression Visibility Wind Speed Wind Dir Waves Ship Positions

Mobile

Owner: Kirby Inland Marine, LP, Houston, TX. More information available from US FCC via Universal Licensing System and Coast Guard Vessel Documentation Center.

Last reported at 2018-Apr-13 00:36 UTC. Time now 2018-Apr-20 12:49 UTC.
Position N 30°24' W 086°53'.

Length 206 m.

Type: . MMSI: 367314430.

Date/timePositionNaut miles runAvg speedWind from/ knotsBaromVisibWave heightAir tempDewpointWater temp
2018-Apr-13 00:36N 30°24' W 086°53'1 6.7
2018-Apr-13 00:30N 30°24' W 086°53'3 6.8
2018-Apr-13 00:00N 30°24' W 086°49'3 6.9
2018-Apr-12 23:30N 30°24' W 086°45'11 6.7
2018-Apr-12 21:50N 30°25' W 086°32'3 7.7
2018-Apr-12 21:30N 30°27' W 086°29'1 2.5
2018-Apr-12 21:00N 30°28' W 086°28'3 4.8
2018-Apr-12 20:21N 30°31' W 086°29'0 0.0
2018-Apr-12 06:59N 30°31' W 086°29'1 1.3
2018-Apr-12 06:30N 30°30' W 086°29'2 4.8
2018-Apr-12 06:00N 30°28' W 086°28'1 1.2
2018-Apr-12 05:30N 30°27' W 086°29'14 5.6
2018-Apr-12 02:58N 30°24' W 086°45'3 6.2
2018-Apr-12 02:30N 30°24' W 086°48'3 6.2
2018-Apr-12 02:00N 30°24' W 086°52'  
2018-Apr-07 23:04N 30°24' W 086°53'1 6.6
2018-Apr-07 23:00N 30°24' W 086°53'3 6.3
2018-Apr-07 22:30N 30°24' W 086°49'3 6.2
2018-Apr-07 22:00N 30°24' W 086°45'9 5.2
2018-Apr-07 20:20N 30°24' W 086°35'3 6.2
2018-Apr-07 19:47N 30°25' W 086°32'2 7.0
2018-Apr-07 19:30N 30°26' W 086°30'2 4.3
2018-Apr-07 19:00N 30°28' W 086°28'2 4.4
2018-Apr-07 18:30N 30°30' W 086°29'1 0.0
2018-Apr-06 04:20N 30°31' W 086°29'0 0.7
2018-Apr-06 04:00N 30°30' W 086°29'2 4.2
2018-Apr-06 03:30N 30°29' W 086°28'1 1.7
2018-Apr-06 03:00N 30°28' W 086°28'3 5.4
2018-Apr-06 02:30N 30°26' W 086°31'12 5.7
2018-Apr-06 00:21N 30°24' W 086°45'2 5.9
2018-Apr-06 00:00N 30°24' W 086°47'3 6.1
2018-Apr-05 23:30N 30°24' W 086°51'  

Dump ship's entire track history